| time (UTC) | temp F | wind direction | speed MPH | gust MPH | rain 1hr in | rain 24hr in | rain mn in | humidity % | barometer mb |
| 20260504233237 | 70 | 83 | 0.0 | 1.0 | 0.00 | 0.00 | 0.00 | 45 | 1010.9 |
| 20260504232735 | 71 | 95 | 0.0 | 1.0 | 0.00 | 0.00 | 0.00 | 45 | 1011.0 |
| 20260504232231 | 71 | 93 | 1.0 | 1.0 | 0.00 | 0.00 | 0.00 | 42 | 1011.1 |
| 20260504231728 | 71 | 100 | 0.0 | 1.0 | 0.00 | 0.00 | 0.00 | 43 | 1011.0 |
| 20260504231225 | 71 | 172 | 1.0 | 2.0 | 0.00 | 0.00 | 0.00 | 41 | 1011.1 |
| 20260504230721 | 72 | 65 | 0.0 | 1.0 | 0.00 | 0.00 | 0.00 | 44 | 1010.9 |
| 20260504230220 | 72 | 130 | 0.0 | 1.0 | 0.00 | 0.00 | 0.00 | 41 | 1011.0 |
| 20260504225718 | 72 | 127 | 0.0 | 2.0 | 0.00 | 0.00 | 0.00 | 42 | 1010.9 |
| 20260504225214 | 72 | 101 | 0.0 | 1.0 | 0.00 | 0.00 | 0.00 | 41 | 1011.0 |
| 20260504224711 | 72 | 97 | 1.0 | 1.0 | 0.00 | 0.00 | 0.00 | 40 | 1011.1 |
| 20260504224209 | 73 | 62 | 0.0 | 1.0 | 0.00 | 0.00 | 0.00 | 42 | 1011.2 |
| 20260504223705 | 73 | 273 | 1.0 | 2.0 | 0.00 | 0.00 | 0.00 | 41 | 1011.0 |
| 20260504223200 | 73 | 4 | 1.0 | 2.0 | 0.00 | 0.00 | 0.00 | 40 | 1010.8 |
| 20260504222658 | 73 | 111 | 1.0 | 1.0 | 0.00 | 0.00 | 0.00 | 42 | 1010.8 |
| 20260504222154 | 73 | 86 | 1.0 | 3.0 | 0.00 | 0.00 | 0.00 | 40 | 1010.9 |
| 20260504221652 | 74 | 93 | 1.0 | 2.0 | 0.00 | 0.00 | 0.00 | 42 | 1010.9 |
| 20260504221149 | 74 | 47 | 0.0 | 1.0 | 0.00 | 0.00 | 0.00 | 41 | 1010.8 |
| 20260504220645 | 74 | 51 | 1.0 | 1.0 | 0.00 | 0.00 | 0.00 | 39 | 1010.9 |
| 20260504220143 | 75 | 126 | 0.0 | 1.0 | 0.00 | 0.00 | 0.00 | 40 | 1011.1 |
| 20260504215639 | 74 | 49 | 0.0 | 1.0 | 0.00 | 0.00 | 0.00 | 41 | 1011.0 |
| 20260504215136 | 74 | 72 | 1.0 | 1.0 | 0.00 | 0.00 | 0.00 | 39 | 1011.1 |
| 20260504214632 | 74 | 40 | 1.0 | 2.0 | 0.00 | 0.00 | 0.00 | 41 | 1010.9 |
| 20260504214130 | 74 | 125 | 1.0 | 1.0 | 0.00 | 0.00 | 0.00 | 40 | 1011.1 |
| 20260504213625 | 75 | 160 | 1.0 | 1.0 | 0.00 | 0.00 | 0.00 | 39 | 1011.2 |
| 20260504213122 | 74 | 65 | 1.0 | 2.0 | 0.00 | 0.00 | 0.00 | 40 | 1011.1 |
| 20260504212618 | 75 | 118 | 1.0 | 2.0 | 0.00 | 0.00 | 0.00 | 37 | 1011.3 |
| 20260504212115 | 75 | 22 | 1.0 | 2.0 | 0.00 | 0.00 | 0.00 | 40 | 1011.3 |
| 20260504211613 | 75 | 15 | 1.0 | 2.0 | 0.00 | 0.00 | 0.00 | 39 | 1011.1 |
| 20260504211109 | 75 | 267 | 1.0 | 3.0 | 0.00 | 0.00 | 0.00 | 37 | 1011.4 |
| 20260504210607 | 75 | 81 | 0.0 | 1.0 | 0.00 | 0.00 | 0.00 | 39 | 1011.2 |
| 20260504205601 | 75 | 44 | 1.0 | 2.0 | 0.00 | 0.00 | 0.00 | 39 | 1011.3 |
| 20260504205058 | 75 | 12 | 2.0 | 3.0 | 0.00 | 0.00 | 0.00 | 39 | 1011.4 |
| 20260504204556 | 75 | 134 | 1.0 | 2.0 | 0.00 | 0.00 | 0.00 | 38 | 1011.2 |
| 20260504204055 | 75 | 118 | 1.0 | 2.0 | 0.00 | 0.00 | 0.00 | 37 | 1011.2 |
| 20260504203553 | 76 | 138 | 1.0 | 2.0 | 0.00 | 0.00 | 0.00 | 36 | 1011.4 |
| 20260504203050 | 77 | 26 | 1.0 | 2.0 | 0.00 | 0.00 | 0.00 | 37 | 1011.6 |
| 20260504202545 | 78 | 179 | 2.0 | 3.0 | 0.00 | 0.00 | 0.00 | 36 | 1011.5 |
| 20260504202042 | 79 | 347 | 5.0 | 6.0 | 0.00 | 0.00 | 0.00 | 34 | 1011.3 |
| 20260504201539 | 79 | 47 | 1.0 | 1.0 | 0.00 | 0.00 | 0.00 | 37 | 1011.7 |
| 20260504201037 | 80 | 220 | 1.0 | 2.0 | 0.00 | 0.00 | 0.00 | 35 | 1011.5 |
| 20260504200533 | 78 | 167 | 1.0 | 2.0 | 0.00 | 0.00 | 0.00 | 36 | 1011.8 |
| 20260504200030 | 77 | 12 | 1.0 | 2.0 | 0.00 | 0.00 | 0.00 | 38 | 1011.8 |
| 20260504195526 | 78 | 132 | 0.0 | 1.0 | 0.00 | 0.00 | 0.00 | 35 | 1011.9 |
| 20260504195023 | 77 | 14 | 1.0 | 3.0 | 0.00 | 0.00 | 0.00 | 34 | 1012.0 |
| 20260504194519 | 78 | 22 | 1.0 | 5.0 | 0.00 | 0.00 | 0.00 | 36 | 1012.1 |
| 20260504194015 | 78 | 343 | 1.0 | 2.0 | 0.00 | 0.00 | 0.00 | 34 | 1012.3 |
| 20260504193512 | 78 | 192 | 1.0 | 2.0 | 0.00 | 0.00 | 0.00 | 34 | 1012.3 |
| 20260504193011 | 78 | 5 | 1.0 | 2.0 | 0.00 | 0.00 | 0.00 | 37 | 1012.6 |
| 20260504192509 | 78 | 17 | 1.0 | 2.0 | 0.00 | 0.00 | 0.00 | 36 | 1012.5 |
| 20260504192007 | 78 | 3 | 1.0 | 5.0 | 0.00 | 0.00 | 0.00 | 35 | 1012.7 |
| 20260504191504 | 77 | 348 | 2.0 | 2.0 | 0.00 | 0.00 | 0.00 | 35 | 1012.7 |
| 20260504190959 | 77 | 31 | 0.0 | 2.0 | 0.00 | 0.00 | 0.00 | 34 | 1012.7 |
| 20260504190455 | 77 | 3 | 0.0 | 3.0 | 0.00 | 0.00 | 0.00 | 39 | 1012.8 |
| 20260504185952 | 77 | 356 | 1.0 | 2.0 | 0.00 | 0.00 | 0.00 | 35 | 1012.8 |
| 20260504185449 | 77 | 246 | 0.0 | 1.0 | 0.00 | 0.00 | 0.00 | 35 | 1012.8 |
| 20260504184945 | 77 | 1 | 0.0 | 2.0 | 0.00 | 0.00 | 0.00 | 36 | 1013.0 |
| 20260504184441 | 76 | 294 | 2.0 | 2.0 | 0.00 | 0.00 | 0.00 | 35 | 1012.8 |
| 20260504183937 | 76 | 288 | 1.0 | 2.0 | 0.00 | 0.00 | 0.00 | 35 | 1012.9 |
| 20260504183434 | 75 | 3 | 2.0 | 3.0 | 0.00 | 0.00 | 0.00 | 38 | 1013.1 |
| 20260504182932 | 76 | 11 | 4.0 | 5.0 | 0.00 | 0.00 | 0.00 | 36 | 1013.2 |
| 20260504182429 | 77 | 292 | 1.0 | 2.0 | 0.00 | 0.00 | 0.00 | 35 | 1013.3 |
| 20260504181926 | 77 | 207 | 1.0 | 2.0 | 0.00 | 0.00 | 0.00 | 33 | 1013.1 |
| 20260504181423 | 76 | 4 | 0.0 | 2.0 | 0.00 | 0.00 | 0.00 | 41 | 1013.0 |
| 20260504180922 | 76 | 6 | 1.0 | 3.0 | 0.00 | 0.00 | 0.00 | 37 | 1013.2 |
| 20260504180420 | 77 | 237 | 1.0 | 2.0 | 0.00 | 0.00 | 0.00 | 34 | 1013.4 |
| 20260504175918 | 77 | 9 | 1.0 | 3.0 | 0.00 | 0.00 | 0.00 | 37 | 1013.4 |
| 20260504175415 | 76 | 9 | 2.0 | 3.0 | 0.00 | 0.00 | 0.00 | 34 | 1013.3 |
| 20260504174913 | 77 | 273 | 1.0 | 2.0 | 0.00 | 0.00 | 0.00 | 35 | 1013.6 |
| 20260504174410 | 77 | 17 | 1.0 | 2.0 | 0.00 | 0.00 | 0.00 | 34 | 1013.6 |
| 20260504173907 | 76 | 24 | 1.0 | 1.0 | 0.00 | 0.00 | 0.00 | 42 | 1013.6 |
| 20260504173403 | 75 | 24 | 1.0 | 1.0 | 0.00 | 0.00 | 0.00 | 36 | 1013.8 |
| 20260504172901 | 75 | 48 | 1.0 | 2.0 | 0.00 | 0.00 | 0.00 | 38 | 1013.6 |
| 20260504172357 | 75 | 12 | 0.0 | 1.0 | 0.00 | 0.00 | 0.00 | 33 | 1014.0 |
| 20260504171853 | 76 | 7 | 2.0 | 2.0 | 0.00 | 0.00 | 0.00 | 36 | 1014.0 |
| 20260504171351 | 75 | 29 | 1.0 | 2.0 | 0.00 | 0.00 | 0.00 | 43 | 1014.0 |
| 20260504170848 | 74 | 95 | 1.0 | 2.0 | 0.00 | 0.00 | 0.00 | 37 | 1014.2 |
| 20260504170344 | 74 | 13 | 1.0 | 5.0 | 0.00 | 0.00 | 0.00 | 37 | 1014.2 |
| 20260504160303 | 73 | 23 | 1.0 | 2.0 | 0.00 | 0.00 | 0.00 | 34 | 1015.1 |
| 20260504150728 | 69 | 329 | 0.0 | 1.0 | 0.00 | 0.00 | 0.00 | 48 | 1015.2 |
| 20260504150225 | 68 | 330 | 0.0 | 1.0 | 0.00 | 0.00 | 0.00 | 45 | 1015.3 |
| 20260504141154 | 64 | 54 | 1.0 | 2.0 | 0.00 | 0.00 | 0.00 | 52 | 1015.6 |
| 20260504140651 | 63 | 138 | 1.0 | 2.0 | 0.00 | 0.00 | 0.00 | 54 | 1015.7 |
| 20260504140146 | 63 | 128 | 0.0 | 1.0 | 0.00 | 0.00 | 0.00 | 54 | 1015.6 |
| 20260504130615 | 59 | 43 | 1.0 | 2.0 | 0.00 | 0.00 | 0.00 | 67 | 1015.8 |
| 20260504130112 | 58 | 55 | 0.0 | 2.0 | 0.00 | 0.00 | 0.00 | 68 | 1015.9 |
| 20260504110503 | 50 | 64 | 1.0 | 1.0 | 0.00 | 0.00 | 0.00 | 86 | 1016.3 |
| 20260504100425 | 47 | 86 | 1.0 | 1.0 | 0.00 | 0.00 | 0.00 | 86 | 1016.7 |
| 20260504081818 | 46 | 67 | 0.0 | 1.0 | 0.00 | 0.00 | 0.00 | 83 | 1016.7 |
| 20260504081314 | 46 | 67 | 0.0 | 0.0 | 0.00 | 0.00 | 0.00 | 83 | 1016.6 |
| 20260504080810 | 46 | 67 | 0.0 | 0.0 | 0.00 | 0.00 | 0.00 | 83 | 1016.7 |
| 20260504080308 | 46 | 67 | 0.0 | 1.0 | 0.00 | 0.00 | 0.00 | 82 | 1016.7 |
| 20260504070235 | 47 | 68 | 0.0 | 1.0 | 0.00 | 0.00 | 0.00 | 81 | 1016.6 |
| 20260504060155 | 47 | 69 | 0.0 | 0.0 | 0.00 | 0.00 | 0.00 | 76 | 1016.8 |
| 20260504050623 | 47 | 75 | 0.0 | 0.0 | 0.00 | 0.00 | 0.00 | 72 | 1016.9 |
| 20260504050120 | 47 | 76 | 0.0 | 0.0 | 0.00 | 0.00 | 0.00 | 72 | 1016.7 |
| 20260504045618 | 47 | 76 | 0.0 | 1.0 | 0.00 | 0.00 | 0.00 | 74 | 1016.7 |
| 20260504045112 | 47 | 75 | 0.0 | 0.0 | 0.00 | 0.00 | 0.00 | 75 | 1016.5 |
| 20260504044610 | 47 | 70 | 0.0 | 0.0 | 0.00 | 0.00 | 0.00 | 74 | 1016.9 |
| 20260504044107 | 46 | 70 | 0.0 | 0.0 | 0.00 | 0.00 | 0.00 | 74 | 1016.7 |
| 20260504043604 | 46 | 70 | 0.0 | 1.0 | 0.00 | 0.00 | 0.00 | 75 | 1016.5 |
| 20260504043101 | 46 | 70 | 0.0 | 1.0 | 0.00 | 0.00 | 0.00 | 75 | 1016.5 |
| 20260504042558 | 46 | 70 | 0.0 | 0.0 | 0.00 | 0.00 | 0.00 | 75 | 1016.5 |
| 20260504042055 | 46 | 70 | 0.0 | 0.0 | 0.00 | 0.00 | 0.00 | 75 | 1016.3 |
| 20260504041551 | 46 | 70 | 0.0 | 0.0 | 0.00 | 0.00 | 0.00 | 76 | 1016.3 |
| 20260504041047 | 46 | 70 | 0.0 | 0.0 | 0.00 | 0.00 | 0.00 | 76 | 1016.2 |
| 20260504040545 | 46 | 71 | 0.0 | 0.0 | 0.00 | 0.00 | 0.00 | 76 | 1016.4 |
| 20260504040041 | 46 | 71 | 0.0 | 0.0 | 0.00 | 0.00 | 0.00 | 75 | 1016.1 |
| 20260504035538 | 46 | 71 | 0.0 | 0.0 | 0.00 | 0.00 | 0.00 | 74 | 1016.0 |
| 20260504035034 | 46 | 71 | 0.0 | 0.0 | 0.00 | 0.00 | 0.00 | 74 | 1016.1 |
| 20260504034533 | 47 | 70 | 0.0 | 0.0 | 0.00 | 0.00 | 0.00 | 76 | 1016.1 |
| 20260504034029 | 47 | 70 | 0.0 | 0.0 | 0.00 | 0.00 | 0.00 | 76 | 1016.1 |
| 20260504033527 | 47 | 70 | 0.0 | 0.0 | 0.00 | 0.00 | 0.00 | 73 | 1016.0 |
| 20260504033024 | 47 | 70 | 0.0 | 0.0 | 0.00 | 0.00 | 0.00 | 73 | 1016.0 |
| 20260504032521 | 47 | 69 | 0.0 | 0.0 | 0.00 | 0.00 | 0.00 | 72 | 1016.0 |
| 20260504032018 | 47 | 68 | 0.0 | 0.0 | 0.00 | 0.00 | 0.00 | 74 | 1015.9 |
| 20260504031515 | 47 | 67 | 0.0 | 0.0 | 0.00 | 0.00 | 0.00 | 72 | 1015.9 |
| 20260504031011 | 47 | 67 | 0.0 | 0.0 | 0.00 | 0.00 | 0.00 | 74 | 1015.9 |
| 20260504030508 | 47 | 67 | 0.0 | 0.0 | 0.00 | 0.00 | 0.00 | 72 | 1015.8 |
| 20260504030004 | 47 | 67 | 0.0 | 0.0 | 0.00 | 0.00 | 0.00 | 71 | 1015.9 |
| 20260504025501 | 48 | 67 | 0.0 | 0.0 | 0.00 | 0.00 | 0.00 | 69 | 1016.0 |
| 20260504024958 | 48 | 67 | 0.0 | 1.0 | 0.00 | 0.00 | 0.00 | 71 | 1016.1 |
| 20260504024455 | 48 | 67 | 0.0 | 0.0 | 0.00 | 0.00 | 0.00 | 70 | 1015.9 |
| 20260504023952 | 48 | 67 | 0.0 | 0.0 | 0.00 | 0.00 | 0.00 | 68 | 1015.8 |
| 20260504023449 | 48 | 67 | 0.0 | 0.0 | 0.00 | 0.00 | 0.00 | 69 | 1015.9 |
| 20260504022944 | 48 | 67 | 0.0 | 0.0 | 0.00 | 0.00 | 0.00 | 71 | 1015.8 |
| 20260504022441 | 48 | 67 | 0.0 | 0.0 | 0.00 | 0.00 | 0.00 | 70 | 1016.0 |
| 20260504021937 | 48 | 67 | 0.0 | 0.0 | 0.00 | 0.00 | 0.00 | 70 | 1015.7 |
| 20260504021435 | 49 | 67 | 0.0 | 0.0 | 0.00 | 0.00 | 0.00 | 70 | 1015.9 |
| 20260504020932 | 49 | 67 | 0.0 | 0.0 | 0.00 | 0.00 | 0.00 | 68 | 1015.9 |
| 20260504020428 | 49 | 67 | 0.0 | 0.0 | 0.00 | 0.00 | 0.00 | 64 | 1015.9 |
| 20260504015925 | 49 | 67 | 0.0 | 0.0 | 0.00 | 0.00 | 0.00 | 63 | 1015.8 |
| 20260504015421 | 49 | 67 | 0.0 | 0.0 | 0.00 | 0.00 | 0.00 | 64 | 1015.9 |
| 20260504014917 | 50 | 67 | 0.0 | 0.0 | 0.00 | 0.00 | 0.00 | 67 | 1016.0 |
| 20260504014414 | 50 | 67 | 0.0 | 0.0 | 0.00 | 0.00 | 0.00 | 65 | 1015.8 |
| 20260504013910 | 50 | 67 | 0.0 | 0.0 | 0.00 | 0.00 | 0.00 | 62 | 1015.7 |
| 20260504013409 | 50 | 67 | 0.0 | 0.0 | 0.00 | 0.00 | 0.00 | 61 | 1015.9 |
| 20260504012905 | 51 | 67 | 0.0 | 0.0 | 0.00 | 0.00 | 0.00 | 65 | 1015.8 |
| 20260504012403 | 51 | 67 | 0.0 | 0.0 | 0.00 | 0.00 | 0.00 | 63 | 1015.5 |
| 20260504011900 | 51 | 67 | 0.0 | 0.0 | 0.00 | 0.00 | 0.00 | 60 | 1015.7 |
| 20260504011357 | 51 | 67 | 0.0 | 0.0 | 0.00 | 0.00 | 0.00 | 63 | 1015.6 |
| 20260504010852 | 52 | 67 | 0.0 | 0.0 | 0.00 | 0.00 | 0.00 | 61 | 1015.4 |
| 20260504010348 | 52 | 67 | 0.0 | 0.0 | 0.00 | 0.00 | 0.00 | 62 | 1015.4 |
| 20260504005845 | 52 | 67 | 0.0 | 0.0 | 0.00 | 0.00 | 0.00 | 57 | 1015.4 |
| 20260504005342 | 52 | 67 | 0.0 | 0.0 | 0.00 | 0.00 | 0.00 | 56 | 1015.3 |
| 20260504004839 | 53 | 67 | 0.0 | 0.0 | 0.00 | 0.00 | 0.00 | 56 | 1015.2 |
| 20260504004337 | 53 | 67 | 0.0 | 0.0 | 0.00 | 0.00 | 0.00 | 54 | 1015.2 |
| 20260504003833 | 53 | 67 | 0.0 | 0.0 | 0.00 | 0.00 | 0.00 | 59 | 1015.1 |
| 20260504003330 | 54 | 67 | 0.0 | 0.0 | 0.00 | 0.00 | 0.00 | 55 | 1015.2 |
| 20260504002827 | 54 | 67 | 0.0 | 0.0 | 0.00 | 0.00 | 0.00 | 55 | 1015.0 |
| 20260504002323 | 54 | 67 | 0.0 | 0.0 | 0.00 | 0.00 | 0.00 | 52 | 1015.0 |
| 20260504001821 | 55 | 67 | 0.0 | 0.0 | 0.00 | 0.00 | 0.00 | 55 | 1015.0 |
| 20260504001318 | 55 | 67 | 0.0 | 0.0 | 0.00 | 0.00 | 0.00 | 49 | 1014.8 |
| 20260504000815 | 55 | 67 | 0.0 | 0.0 | 0.00 | 0.00 | 0.00 | 52 | 1014.7 |
| 20260504000312 | 56 | 67 | 0.0 | 0.0 | 0.00 | 0.00 | 0.00 | 48 | 1014.7 |
| 20260503235810 | 56 | 67 | 0.0 | 0.0 | 0.00 | 0.00 | 0.00 | 45 | 1014.7 |
| 20260503235307 | 57 | 67 | 0.0 | 0.0 | 0.00 | 0.00 | 0.00 | 46 | 1014.6 |
| 20260503234805 | 57 | 67 | 0.0 | 0.0 | 0.00 | 0.00 | 0.00 | 45 | 1014.5 |
| 20260503234303 | 57 | 66 | 0.0 | 1.0 | 0.00 | 0.00 | 0.00 | 43 | 1014.8 |
| 20260503233800 | 58 | 88 | 0.0 | 0.0 | 0.00 | 0.00 | 0.00 | 44 | 1014.5 |